Terminal Aerodrome Forecast
Issued by NWS

Home | Current Version | Previous Version | Graphics & Text | Print | Product List | Glossary On
Versions: 1 2 3 4 5 6 7 8 9 10 11 12 13 14 15 16 17 18 19 20
000
FTUS43 KBIS 291300 AAA
TAFMOT
TAF AMD
KMOT 291308Z 2913/3012 31010KT P6SM VCSH SCT012 BKN100
      TEMPO 2913/2915 BKN012
     FM291800 36012KT P6SM SCT030 BKN080
     FM300300 04009KT P6SM FEW100=

USA.gov is the U.S. government's official web portal to all federal, state and local government web resources and services.